Terminal Aerodrome Forecast
Issued by NWS Pueblo, CO

Home | Current Version | Previous Version | Text Only | Print | Product List | Glossary On
Versions: 1 2 3 4 5 6 7 8 9 10 11 12 13 14 15 16 17 18 19 20 21 22 23 24 25 26 27 28 29 30 31 32 33 34
000
FTUS45 KPUB 291720
TAFALS
TAF
KALS 291720Z 2918/3018 23007KT P6SM SCT050 BKN120
     FM292100 25011KT 4SM TSRA BKN035CB OVC100
     FM300000 30010KT P6SM VCTS SCT040CB BKN080
     FM300300 15006KT P6SM SCT080 BKN120=

USA.gov is the U.S. government's official web portal to all federal, state and local government web resources and services.